Time,TemperatureF,DewpointF,PressureIn,WindDirection,WindDirectionDegrees,WindSpeedMPH,WindSpeedGustMPH,Humidity,HourlyPrecipIn,Conditions,Clouds,dailyrainin,SolarRadiationWatts/m^2,SoftwareType,DateUTC
2013-08-08 00:32:00,67.0,31.0,-100.00,ESE,118,1.0,7.0,26,0.00,,,0.00,0.000000,,2013-08-08 06:32:00,
2013-08-08 00:43:00,67.0,31.0,-100.00,ESE,118,1.0,7.0,26,0.00,,,0.00,0.000000,,2013-08-08 06:43:00,
2013-08-08 00:52:00,67.0,31.0,-100.00,ESE,118,1.0,7.0,26,0.00,,,0.00,0.000000,,2013-08-08 06:52:00,
2013-08-08 01:43:00,67.0,31.0,-100.00,West,264,0.0,2.0,26,0.00,,,0.00,0.000000,,2013-08-08 07:43:00,
2013-08-08 01:53:00,67.0,31.0,-100.00,West,264,0.0,2.0,26,0.00,,,0.00,0.000000,,2013-08-08 07:53:00,
2013-08-08 02:22:00,65.0,31.0,-100.00,WNW,288,0.0,2.0,28,0.00,,,0.00,0.000000,,2013-08-08 08:22:00,
2013-08-08 02:32:00,65.0,31.0,-100.00,WNW,288,0.0,2.0,28,0.00,,,0.00,0.000000,,2013-08-08 08:32:00,
2013-08-08 02:43:00,65.0,31.0,-100.00,WNW,288,0.0,2.0,28,0.00,,,0.00,0.000000,,2013-08-08 08:43:00,
2013-08-08 02:52:00,65.0,31.0,-100.00,WNW,288,0.0,2.0,28,0.00,,,0.00,0.000000,,2013-08-08 08:52:00,
2013-08-08 03:32:00,65.0,31.0,-100.00,SSW,193,1.0,4.0,28,0.00,,,0.00,0.000000,,2013-08-08 09:32:00,
2013-08-08 03:42:00,65.0,31.0,-100.00,SSW,193,1.0,4.0,28,0.00,,,0.00,0.000000,,2013-08-08 09:42:00,
2013-08-08 03:53:00,65.0,31.0,-100.00,SSW,193,1.0,4.0,28,0.00,,,0.00,0.000000,,2013-08-08 09:53:00,
2013-08-08 04:22:00,63.0,30.0,-100.00,South,172,1.0,4.0,29,0.00,,,0.00,0.000000,,2013-08-08 10:22:00,
2013-08-08 04:52:00,63.0,30.0,-100.00,South,172,1.0,4.0,29,0.00,,,0.00,0.000000,,2013-08-08 10:52:00,
2013-08-08 05:21:00,63.0,30.0,-100.00,SW,218,1.0,4.0,29,0.00,,,0.00,0.000000,,2013-08-08 11:21:00,
2013-08-08 05:32:00,63.0,30.0,-100.00,SW,218,1.0,4.0,29,0.00,,,0.00,0.000000,,2013-08-08 11:32:00,
2013-08-08 05:43:00,63.0,30.0,-100.00,SW,218,1.0,4.0,29,0.00,,,0.00,0.000000,,2013-08-08 11:43:00,
2013-08-08 05:52:00,63.0,30.0,-100.00,SW,218,1.0,4.0,29,0.00,,,0.00,0.000000,,2013-08-08 11:52:00,
2013-08-08 07:43:00,63.0,29.0,-100.00,WSW,257,1.0,3.0,27,0.00,,,0.00,3.000000,,2013-08-08 13:43:00,
2013-08-08 07:52:00,63.0,29.0,-100.00,WSW,257,1.0,3.0,27,0.00,,,0.00,3.000000,,2013-08-08 13:52:00,
2013-08-08 08:32:00,61.0,32.0,-100.00,SSE,168,1.0,5.0,33,0.00,,,0.00,28.000000,,2013-08-08 14:32:00,
2013-08-08 08:43:00,61.0,32.0,-100.00,SSE,168,1.0,5.0,33,0.00,,,0.00,28.000000,,2013-08-08 14:43:00,
2013-08-08 08:53:00,61.0,32.0,-100.00,SSE,168,1.0,5.0,33,0.00,,,0.00,28.000000,,2013-08-08 14:53:00,
2013-08-08 09:32:00,64.0,34.0,-100.00,SW,235,3.0,5.0,33,0.00,,,0.00,69.000000,,2013-08-08 15:32:00,
2013-08-08 09:43:00,64.0,34.0,-100.00,SW,235,3.0,5.0,33,0.00,,,0.00,69.000000,,2013-08-08 15:43:00,
2013-08-08 09:52:00,64.0,34.0,-100.00,SW,235,3.0,5.0,33,0.00,,,0.00,69.000000,,2013-08-08 15:52:00,
2013-08-08 10:32:00,70.0,36.0,-100.00,WNW,282,1.0,6.0,29,0.00,,,0.00,287.000000,,2013-08-08 16:32:00,
2013-08-08 10:42:00,70.0,36.0,-100.00,WNW,282,1.0,6.0,29,0.00,,,0.00,287.000000,,2013-08-08 16:42:00,
2013-08-08 10:52:00,70.0,36.0,-100.00,WNW,282,1.0,6.0,29,0.00,,,0.00,287.000000,,2013-08-08 16:52:00,
2013-08-08 11:32:00,74.0,38.0,-100.00,West,268,2.0,7.0,27,0.00,,,0.00,568.000000,,2013-08-08 17:32:00,
2013-08-08 11:43:00,74.0,38.0,-100.00,West,268,2.0,7.0,27,0.00,,,0.00,568.000000,,2013-08-08 17:43:00,
2013-08-08 11:52:00,74.0,38.0,-100.00,West,268,2.0,7.0,27,0.00,,,0.00,568.000000,,2013-08-08 17:52:00,
2013-08-08 12:21:00,78.0,39.0,-100.00,WSW,253,3.0,8.0,25,0.00,,,0.00,731.000000,,2013-08-08 18:21:00,
2013-08-08 12:32:00,78.0,39.0,-100.00,WSW,253,3.0,8.0,25,0.00,,,0.00,731.000000,,2013-08-08 18:32:00,
2013-08-08 12:43:00,78.0,39.0,-100.00,WSW,253,3.0,8.0,25,0.00,,,0.00,731.000000,,2013-08-08 18:43:00,
2013-08-08 12:52:00,78.0,39.0,-100.00,WSW,253,3.0,8.0,25,0.00,,,0.00,731.000000,,2013-08-08 18:52:00,
2013-08-08 13:22:00,82.0,38.0,-100.00,West,266,3.0,9.0,21,0.00,,,0.00,825.000000,,2013-08-08 19:22:00,
2013-08-08 13:32:00,82.0,38.0,-100.00,West,266,3.0,9.0,21,0.00,,,0.00,825.000000,,2013-08-08 19:32:00,
2013-08-08 13:43:00,82.0,38.0,-100.00,West,266,3.0,9.0,21,0.00,,,0.00,825.000000,,2013-08-08 19:43:00,
2013-08-08 13:53:00,82.0,38.0,-100.00,West,266,3.0,9.0,21,0.00,,,0.00,825.000000,,2013-08-08 19:53:00,
2013-08-08 14:22:00,82.0,34.0,-100.00,WNW,293,5.0,11.0,18,0.00,,,0.00,842.000000,,2013-08-08 20:22:00,
2013-08-08 14:32:00,82.0,34.0,-100.00,WNW,293,5.0,11.0,18,0.00,,,0.00,842.000000,,2013-08-08 20:32:00,
2013-08-08 14:42:00,82.0,34.0,-100.00,WNW,293,5.0,11.0,18,0.00,,,0.00,842.000000,,2013-08-08 20:42:00,
2013-08-08 14:52:00,82.0,34.0,-100.00,WNW,293,5.0,11.0,18,0.00,,,0.00,842.000000,,2013-08-08 20:52:00,
2013-08-08 15:22:00,85.0,35.0,-100.00,WNW,291,5.0,11.0,17,0.00,,,0.00,756.000000,,2013-08-08 21:22:00,
2013-08-08 15:33:00,85.0,35.0,-100.00,WNW,291,5.0,11.0,17,0.00,,,0.00,756.000000,,2013-08-08 21:33:00,
2013-08-08 15:42:00,85.0,35.0,-100.00,WNW,291,5.0,11.0,17,0.00,,,0.00,756.000000,,2013-08-08 21:42:00,
2013-08-08 15:52:00,85.0,35.0,-100.00,WNW,291,5.0,11.0,17,0.00,,,0.00,756.000000,,2013-08-08 21:52:00,
2013-08-08 16:22:00,86.0,36.0,-100.00,WNW,288,6.0,14.0,17,0.00,,,0.00,842.000000,,2013-08-08 22:22:00,
2013-08-08 16:33:00,86.0,36.0,-100.00,WNW,288,6.0,14.0,17,0.00,,,0.00,842.000000,,2013-08-08 22:33:00,
2013-08-08 16:46:00,86.0,36.0,-100.00,WNW,288,6.0,14.0,17,0.00,,,0.00,842.000000,,2013-08-08 22:46:00,
2013-08-08 16:53:00,86.0,36.0,-100.00,WNW,288,6.0,14.0,17,0.00,,,0.00,842.000000,,2013-08-08 22:53:00,
2013-08-08 17:44:00,87.0,35.0,-100.00,WNW,290,5.0,13.0,16,0.00,,,0.00,748.000000,,2013-08-08 23:44:00,
2013-08-08 17:53:00,87.0,35.0,-100.00,WNW,290,5.0,13.0,16,0.00,,,0.00,748.000000,,2013-08-08 23:53:00,
2013-08-08 18:45:00,82.0,38.0,-100.00,East,93,5.0,12.0,21,0.00,,,0.00,389.000000,,2013-08-09 00:45:00,
2013-08-08 18:53:00,82.0,38.0,-100.00,East,93,5.0,12.0,21,0.00,,,0.00,389.000000,,2013-08-09 00:53:00,
2013-08-08 19:23:00,75.0,40.0,-100.00,East,89,5.0,12.0,28,0.00,,,0.00,294.000000,,2013-08-09 01:23:00,
2013-08-08 19:33:00,75.0,40.0,-100.00,East,89,5.0,12.0,28,0.00,,,0.00,294.000000,,2013-08-09 01:33:00,
2013-08-08 19:54:00,75.0,40.0,-100.00,East,89,5.0,12.0,28,0.00,,,0.00,294.000000,,2013-08-09 01:54:00,
2013-08-08 20:44:00,73.0,39.0,-100.00,East,87,4.0,9.0,29,0.00,,,0.00,102.000000,,2013-08-09 02:44:00,
2013-08-08 20:54:00,73.0,39.0,-100.00,East,87,4.0,9.0,29,0.00,,,0.00,102.000000,,2013-08-09 02:54:00,
2013-08-08 21:34:00,72.0,37.0,-100.00,East,101,1.0,9.0,28,0.00,,,0.00,43.000000,,2013-08-09 03:34:00,
2013-08-08 21:44:00,72.0,37.0,-100.00,East,101,1.0,9.0,28,0.00,,,0.00,43.000000,,2013-08-09 03:44:00,
2013-08-08 21:52:00,72.0,37.0,-100.00,East,101,1.0,9.0,28,0.00,,,0.00,43.000000,,2013-08-09 03:52:00,
2013-08-08 22:22:00,71.0,37.0,-100.00,WNW,287,0.0,4.0,29,0.00,,,0.00,0.000000,,2013-08-09 04:22:00,
2013-08-08 22:33:00,71.0,37.0,-100.00,WNW,287,0.0,4.0,29,0.00,,,0.00,0.000000,,2013-08-09 04:33:00,
2013-08-08 22:43:00,71.0,37.0,-100.00,WNW,287,0.0,4.0,29,0.00,,,0.00,0.000000,,2013-08-09 04:43:00,
2013-08-08 22:53:00,71.0,37.0,-100.00,WNW,287,0.0,4.0,29,0.00,,,0.00,0.000000,,2013-08-09 04:53:00,
2013-08-08 23:32:00,69.0,36.0,-100.00,NE,51,1.0,4.0,30,0.00,,,-99.99,0.000000,,2013-08-09 05:32:00,
2013-08-08 23:42:00,69.0,36.0,-100.00,NE,51,1.0,4.0,30,0.00,,,-99.99,0.000000,,2013-08-09 05:42:00,
2013-08-08 23:52:00,69.0,36.0,-100.00,NE,51,1.0,4.0,30,0.00,,,-99.99,0.000000,,2013-08-09 05:52:00,